sensor_id;sensor_type;location;lat;lon;timestamp;P1;durP1;ratioP1;P2;durP2;ratioP2
9524;SDS011;15940;48.734;9.112;2022-11-27T00:01:14;17.40;;;12.93;;
9524;SDS011;15940;48.734;9.112;2022-11-27T00:03:43;17.03;;;13.23;;
9524;SDS011;15940;48.734;9.112;2022-11-27T00:06:12;17.20;;;13.17;;
9524;SDS011;15940;48.734;9.112;2022-11-27T00:08:40;13.93;;;11.63;;
9524;SDS011;15940;48.734;9.112;2022-11-27T00:11:09;15.43;;;11.97;;
9524;SDS011;15940;48.734;9.112;2022-11-27T00:13:39;15.50;;;11.70;;
9524;SDS011;15940;48.734;9.112;2022-11-27T00:16:06;16.60;;;11.67;;
9524;SDS011;15940;48.734;9.112;2022-11-27T00:18:34;18.63;;;11.47;;
9524;SDS011;15940;48.734;9.112;2022-11-27T00:21:02;15.93;;;11.60;;
9524;SDS011;15940;48.734;9.112;2022-11-27T00:23:32;16.00;;;11.80;;
9524;SDS011;15940;48.734;9.112;2022-11-27T00:26:00;20.43;;;11.83;;
9524;SDS011;15940;48.734;9.112;2022-11-27T00:28:28;17.67;;;12.03;;
9524;SDS011;15940;48.734;9.112;2022-11-27T00:30:57;22.23;;;13.00;;
9524;SDS011;15940;48.734;9.112;2022-11-27T00:33:24;24.07;;;13.90;;
9524;SDS011;15940;48.734;9.112;2022-11-27T00:35:51;18.40;;;12.43;;
9524;SDS011;15940;48.734;9.112;2022-11-27T00:38:18;23.50;;;14.57;;
9524;SDS011;15940;48.734;9.112;2022-11-27T00:40:46;25.20;;;14.50;;
9524;SDS011;15940;48.734;9.112;2022-11-27T00:43:14;22.60;;;13.67;;
9524;SDS011;15940;48.734;9.112;2022-11-27T00:45:41;16.93;;;12.83;;
9524;SDS011;15940;48.734;9.112;2022-11-27T00:48:07;20.40;;;12.47;;
9524;SDS011;15940;48.734;9.112;2022-11-27T00:50:34;23.87;;;13.67;;
9524;SDS011;15940;48.734;9.112;2022-11-27T00:53:01;18.03;;;12.67;;
9524;SDS011;15940;48.734;9.112;2022-11-27T00:55:28;19.60;;;12.90;;
9524;SDS011;15940;48.734;9.112;2022-11-27T00:57:57;22.00;;;12.70;;
9524;SDS011;15940;48.734;9.112;2022-11-27T01:00:23;17.40;;;11.57;;
9524;SDS011;15940;48.734;9.112;2022-11-27T01:02:50;15.37;;;11.83;;
9524;SDS011;15940;48.734;9.112;2022-11-27T01:05:17;16.47;;;10.83;;
9524;SDS011;15940;48.734;9.112;2022-11-27T01:07:44;14.23;;;11.27;;
9524;SDS011;15940;48.734;9.112;2022-11-27T01:10:11;15.23;;;10.47;;
9524;SDS011;15940;48.734;9.112;2022-11-27T01:12:38;12.60;;;9.83;;
9524;SDS011;15940;48.734;9.112;2022-11-27T01:15:07;11.77;;;10.10;;
9524;SDS011;15940;48.734;9.112;2022-11-27T01:17:35;11.17;;;9.30;;
9524;SDS011;15940;48.734;9.112;2022-11-27T01:20:03;16.20;;;10.20;;
9524;SDS011;15940;48.734;9.112;2022-11-27T01:22:31;15.67;;;10.40;;
9524;SDS011;15940;48.734;9.112;2022-11-27T01:24:59;12.10;;;8.73;;
9524;SDS011;15940;48.734;9.112;2022-11-27T01:27:25;16.27;;;10.20;;
9524;SDS011;15940;48.734;9.112;2022-11-27T01:29:52;13.90;;;10.17;;
9524;SDS011;15940;48.734;9.112;2022-11-27T01:32:21;17.20;;;9.97;;
9524;SDS011;15940;48.734;9.112;2022-11-27T01:34:48;13.30;;;9.53;;
9524;SDS011;15940;48.734;9.112;2022-11-27T01:37:15;14.00;;;9.33;;
9524;SDS011;15940;48.734;9.112;2022-11-27T01:39:42;11.47;;;9.23;;
9524;SDS011;15940;48.734;9.112;2022-11-27T01:42:09;15.77;;;9.70;;
9524;SDS011;15940;48.734;9.112;2022-11-27T01:44:50;15.33;;;9.80;;
9524;SDS011;15940;48.734;9.112;2022-11-27T01:47:30;12.43;;;8.33;;
9524;SDS011;15940;48.734;9.112;2022-11-27T01:50:13;14.27;;;9.73;;
9524;SDS011;15940;48.734;9.112;2022-11-27T01:52:45;15.90;;;9.40;;
9524;SDS011;15940;48.734;9.112;2022-11-27T01:55:19;15.30;;;10.03;;
9524;SDS011;15940;48.734;9.112;2022-11-27T01:57:54;12.97;;;10.00;;
9524;SDS011;15940;48.734;9.112;2022-11-27T02:00:24;16.97;;;9.47;;
9524;SDS011;15940;48.734;9.112;2022-11-27T02:02:53;15.73;;;10.60;;
9524;SDS011;15940;48.734;9.112;2022-11-27T02:05:20;17.90;;;10.90;;
9524;SDS011;15940;48.734;9.112;2022-11-27T02:07:52;14.43;;;10.53;;
9524;SDS011;15940;48.734;9.112;2022-11-27T02:10:21;14.17;;;10.67;;
9524;SDS011;15940;48.734;9.112;2022-11-27T02:12:54;15.27;;;10.50;;
9524;SDS011;15940;48.734;9.112;2022-11-27T02:15:29;13.63;;;9.13;;
9524;SDS011;15940;48.734;9.112;2022-11-27T02:18:11;16.23;;;9.63;;
9524;SDS011;15940;48.734;9.112;2022-11-27T02:20:46;19.97;;;10.23;;
9524;SDS011;15940;48.734;9.112;2022-11-27T02:27:01;15.20;;;10.23;;
9524;SDS011;15940;48.734;9.112;2022-11-27T02:29:44;12.53;;;9.67;;
9524;SDS011;15940;48.734;9.112;2022-11-27T02:32:17;15.00;;;10.90;;
9524;SDS011;15940;48.734;9.112;2022-11-27T02:34:52;17.53;;;11.00;;
9524;SDS011;15940;48.734;9.112;2022-11-27T02:37:28;14.87;;;9.90;;
9524;SDS011;15940;48.734;9.112;2022-11-27T02:40:03;16.27;;;9.57;;
9524;SDS011;15940;48.734;9.112;2022-11-27T02:42:36;13.73;;;9.77;;
9524;SDS011;15940;48.734;9.112;2022-11-27T02:45:11;13.47;;;8.57;;
9524;SDS011;15940;48.734;9.112;2022-11-27T02:47:43;17.13;;;9.90;;
9524;SDS011;15940;48.734;9.112;2022-11-27T02:50:13;12.80;;;8.37;;
9524;SDS011;15940;48.734;9.112;2022-11-27T02:52:45;20.30;;;9.07;;
9524;SDS011;15940;48.734;9.112;2022-11-27T02:55:16;14.70;;;8.73;;
9524;SDS011;15940;48.734;9.112;2022-11-27T02:57:48;14.97;;;8.40;;
9524;SDS011;15940;48.734;9.112;2022-11-27T03:00:20;15.37;;;9.00;;
9524;SDS011;15940;48.734;9.112;2022-11-27T03:02:48;11.10;;;8.40;;
9524;SDS011;15940;48.734;9.112;2022-11-27T03:05:21;15.93;;;8.97;;
9524;SDS011;15940;48.734;9.112;2022-11-27T03:07:53;13.53;;;8.20;;
9524;SDS011;15940;48.734;9.112;2022-11-27T03:10:28;16.50;;;9.10;;
9524;SDS011;15940;48.734;9.112;2022-11-27T03:13:10;13.93;;;8.37;;
9524;SDS011;15940;48.734;9.112;2022-11-27T03:15:40;13.43;;;9.13;;
9524;SDS011;15940;48.734;9.112;2022-11-27T03:18:17;12.07;;;8.97;;
9524;SDS011;15940;48.734;9.112;2022-11-27T03:20:55;14.73;;;8.60;;
9524;SDS011;15940;48.734;9.112;2022-11-27T03:23:28;11.70;;;8.37;;
9524;SDS011;15940;48.734;9.112;2022-11-27T03:25:55;16.33;;;8.23;;
9524;SDS011;15940;48.734;9.112;2022-11-27T03:28:22;15.13;;;7.43;;
9524;SDS011;15940;48.734;9.112;2022-11-27T03:30:50;10.50;;;7.20;;
9524;SDS011;15940;48.734;9.112;2022-11-27T03:33:17;13.47;;;7.00;;
9524;SDS011;15940;48.734;9.112;2022-11-27T03:35:44;10.13;;;6.80;;
9524;SDS011;15940;48.734;9.112;2022-11-27T03:38:11;10.30;;;7.10;;
9524;SDS011;15940;48.734;9.112;2022-11-27T03:40:40;9.53;;;6.83;;
9524;SDS011;15940;48.734;9.112;2022-11-27T03:43:17;9.47;;;6.67;;
9524;SDS011;15940;48.734;9.112;2022-11-27T03:45:51;10.70;;;7.03;;
9524;SDS011;15940;48.734;9.112;2022-11-27T03:48:27;13.83;;;7.17;;
9524;SDS011;15940;48.734;9.112;2022-11-27T03:51:03;12.27;;;7.13;;
9524;SDS011;15940;48.734;9.112;2022-11-27T03:53:37;10.90;;;6.60;;
9524;SDS011;15940;48.734;9.112;2022-11-27T03:56:19;14.80;;;7.63;;
9524;SDS011;15940;48.734;9.112;2022-11-27T03:59:00;10.93;;;5.63;;
9524;SDS011;15940;48.734;9.112;2022-11-27T04:01:34;10.20;;;5.80;;
9524;SDS011;15940;48.734;9.112;2022-11-27T04:04:02;9.30;;;6.10;;
9524;SDS011;15940;48.734;9.112;2022-11-27T04:06:29;12.00;;;6.77;;
9524;SDS011;15940;48.734;9.112;2022-11-27T04:08:56;7.90;;;5.70;;
9524;SDS011;15940;48.734;9.112;2022-11-27T04:11:22;9.87;;;5.77;;
9524;SDS011;15940;48.734;9.112;2022-11-27T04:13:49;6.77;;;5.23;;
9524;SDS011;15940;48.734;9.112;2022-11-27T04:16:16;8.30;;;5.33;;
9524;SDS011;15940;48.734;9.112;2022-11-27T04:18:45;9.17;;;5.70;;
9524;SDS011;15940;48.734;9.112;2022-11-27T04:21:12;7.90;;;5.10;;
9524;SDS011;15940;48.734;9.112;2022-11-27T04:23:40;11.20;;;5.67;;
9524;SDS011;15940;48.734;9.112;2022-11-27T04:26:07;8.33;;;5.67;;
9524;SDS011;15940;48.734;9.112;2022-11-27T04:28:34;10.27;;;6.10;;
9524;SDS011;15940;48.734;9.112;2022-11-27T04:31:02;7.63;;;5.57;;
9524;SDS011;15940;48.734;9.112;2022-11-27T04:33:29;10.13;;;5.67;;
9524;SDS011;15940;48.734;9.112;2022-11-27T04:35:57;8.77;;;5.70;;
9524;SDS011;15940;48.734;9.112;2022-11-27T04:38:24;9.33;;;5.27;;
9524;SDS011;15940;48.734;9.112;2022-11-27T04:40:51;8.97;;;6.20;;
9524;SDS011;15940;48.734;9.112;2022-11-27T04:43:18;10.33;;;6.10;;
9524;SDS011;15940;48.734;9.112;2022-11-27T04:45:46;10.10;;;5.63;;
9524;SDS011;15940;48.734;9.112;2022-11-27T04:48:13;11.63;;;5.67;;
9524;SDS011;15940;48.734;9.112;2022-11-27T04:50:40;8.80;;;5.17;;
9524;SDS011;15940;48.734;9.112;2022-11-27T04:53:08;9.57;;;5.83;;
9524;SDS011;15940;48.734;9.112;2022-11-27T04:55:35;9.03;;;5.47;;
9524;SDS011;15940;48.734;9.112;2022-11-27T04:58:02;8.70;;;5.27;;
9524;SDS011;15940;48.734;9.112;2022-11-27T05:00:29;7.43;;;5.43;;
9524;SDS011;15940;48.734;9.112;2022-11-27T05:02:56;7.97;;;5.30;;
9524;SDS011;15940;48.734;9.112;2022-11-27T05:05:22;8.47;;;5.33;;
9524;SDS011;15940;48.734;9.112;2022-11-27T05:07:49;9.50;;;5.00;;
9524;SDS011;15940;48.734;9.112;2022-11-27T05:10:18;10.80;;;5.07;;
9524;SDS011;15940;48.734;9.112;2022-11-27T05:12:45;8.03;;;5.23;;
9524;SDS011;15940;48.734;9.112;2022-11-27T05:15:12;10.30;;;5.57;;
9524;SDS011;15940;48.734;9.112;2022-11-27T05:17:39;6.97;;;5.13;;
9524;SDS011;15940;48.734;9.112;2022-11-27T05:20:06;7.97;;;5.37;;
9524;SDS011;15940;48.734;9.112;2022-11-27T05:22:34;10.73;;;5.30;;
9524;SDS011;15940;48.734;9.112;2022-11-27T05:25:01;6.77;;;4.70;;
9524;SDS011;15940;48.734;9.112;2022-11-27T05:27:29;7.87;;;4.90;;
9524;SDS011;15940;48.734;9.112;2022-11-27T05:29:56;5.70;;;4.80;;
9524;SDS011;15940;48.734;9.112;2022-11-27T05:32:23;7.00;;;5.07;;
9524;SDS011;15940;48.734;9.112;2022-11-27T05:34:50;7.90;;;5.23;;
9524;SDS011;15940;48.734;9.112;2022-11-27T05:37:17;8.40;;;4.83;;
9524;SDS011;15940;48.734;9.112;2022-11-27T05:39:44;7.97;;;5.23;;
9524;SDS011;15940;48.734;9.112;2022-11-27T05:42:11;8.50;;;4.90;;
9524;SDS011;15940;48.734;9.112;2022-11-27T05:44:39;8.07;;;4.70;;
9524;SDS011;15940;48.734;9.112;2022-11-27T05:47:06;7.77;;;5.10;;
9524;SDS011;15940;48.734;9.112;2022-11-27T05:49:33;6.80;;;4.87;;
9524;SDS011;15940;48.734;9.112;2022-11-27T05:52:00;8.63;;;5.00;;
9524;SDS011;15940;48.734;9.112;2022-11-27T05:54:27;7.40;;;4.47;;
9524;SDS011;15940;48.734;9.112;2022-11-27T05:56:54;5.40;;;4.20;;
9524;SDS011;15940;48.734;9.112;2022-11-27T05:59:21;9.97;;;4.40;;
9524;SDS011;15940;48.734;9.112;2022-11-27T06:01:49;7.97;;;4.23;;
9524;SDS011;15940;48.734;9.112;2022-11-27T06:04:17;5.13;;;4.00;;
9524;SDS011;15940;48.734;9.112;2022-11-27T06:06:44;4.33;;;3.47;;
9524;SDS011;15940;48.734;9.112;2022-11-27T06:09:11;5.33;;;3.87;;
9524;SDS011;15940;48.734;9.112;2022-11-27T06:11:38;4.60;;;4.13;;
9524;SDS011;15940;48.734;9.112;2022-11-27T06:14:05;5.93;;;4.20;;
9524;SDS011;15940;48.734;9.112;2022-11-27T06:16:33;5.97;;;4.10;;
9524;SDS011;15940;48.734;9.112;2022-11-27T06:19:02;7.10;;;4.23;;
9524;SDS011;15940;48.734;9.112;2022-11-27T06:21:29;6.47;;;4.07;;
9524;SDS011;15940;48.734;9.112;2022-11-27T06:23:56;10.93;;;4.70;;
9524;SDS011;15940;48.734;9.112;2022-11-27T06:26:23;5.20;;;4.10;;
9524;SDS011;15940;48.734;9.112;2022-11-27T06:28:53;4.80;;;4.00;;
9524;SDS011;15940;48.734;9.112;2022-11-27T06:31:22;6.73;;;3.97;;
9524;SDS011;15940;48.734;9.112;2022-11-27T06:33:51;5.53;;;3.97;;
9524;SDS011;15940;48.734;9.112;2022-11-27T06:36:22;4.43;;;4.03;;
9524;SDS011;15940;48.734;9.112;2022-11-27T06:38:52;7.53;;;4.33;;
9524;SDS011;15940;48.734;9.112;2022-11-27T06:41:20;4.17;;;3.77;;
9524;SDS011;15940;48.734;9.112;2022-11-27T06:43:48;5.93;;;4.67;;
9524;SDS011;15940;48.734;9.112;2022-11-27T06:46:17;9.07;;;7.10;;
9524;SDS011;15940;48.734;9.112;2022-11-27T06:48:46;8.23;;;6.07;;
9524;SDS011;15940;48.734;9.112;2022-11-27T06:51:15;7.53;;;5.07;;
9524;SDS011;15940;48.734;9.112;2022-11-27T06:53:46;7.97;;;5.17;;
9524;SDS011;15940;48.734;9.112;2022-11-27T06:56:14;5.97;;;5.17;;
9524;SDS011;15940;48.734;9.112;2022-11-27T06:58:44;9.03;;;4.93;;
9524;SDS011;15940;48.734;9.112;2022-11-27T07:01:12;5.80;;;4.90;;
9524;SDS011;15940;48.734;9.112;2022-11-27T07:03:42;8.23;;;5.20;;
9524;SDS011;15940;48.734;9.112;2022-11-27T07:06:10;9.03;;;5.13;;
9524;SDS011;15940;48.734;9.112;2022-11-27T07:08:40;7.67;;;5.10;;
9524;SDS011;15940;48.734;9.112;2022-11-27T07:11:11;6.77;;;4.87;;
9524;SDS011;15940;48.734;9.112;2022-11-27T07:13:40;8.10;;;5.10;;
9524;SDS011;15940;48.734;9.112;2022-11-27T07:16:08;8.17;;;4.50;;
9524;SDS011;15940;48.734;9.112;2022-11-27T07:18:37;7.97;;;5.10;;
9524;SDS011;15940;48.734;9.112;2022-11-27T07:21:06;9.73;;;4.77;;
9524;SDS011;15940;48.734;9.112;2022-11-27T07:23:34;6.47;;;4.67;;
9524;SDS011;15940;48.734;9.112;2022-11-27T07:26:03;5.03;;;4.20;;
9524;SDS011;15940;48.734;9.112;2022-11-27T07:28:33;7.23;;;4.80;;
9524;SDS011;15940;48.734;9.112;2022-11-27T07:31:00;9.10;;;5.57;;
9524;SDS011;15940;48.734;9.112;2022-11-27T07:33:27;7.67;;;5.63;;
9524;SDS011;15940;48.734;9.112;2022-11-27T07:35:58;8.97;;;5.30;;
9524;SDS011;15940;48.734;9.112;2022-11-27T07:38:26;9.77;;;5.80;;
9524;SDS011;15940;48.734;9.112;2022-11-27T07:40:54;10.57;;;5.87;;
9524;SDS011;15940;48.734;9.112;2022-11-27T07:43:23;6.10;;;4.67;;
9524;SDS011;15940;48.734;9.112;2022-11-27T07:45:52;8.80;;;4.80;;
9524;SDS011;15940;48.734;9.112;2022-11-27T07:48:19;6.60;;;4.47;;
9524;SDS011;15940;48.734;9.112;2022-11-27T07:50:46;6.33;;;4.93;;
9524;SDS011;15940;48.734;9.112;2022-11-27T07:53:13;7.43;;;5.33;;
9524;SDS011;15940;48.734;9.112;2022-11-27T07:55:40;7.37;;;5.10;;
9524;SDS011;15940;48.734;9.112;2022-11-27T07:58:07;9.57;;;4.87;;
9524;SDS011;15940;48.734;9.112;2022-11-27T08:00:34;6.40;;;5.30;;
9524;SDS011;15940;48.734;9.112;2022-11-27T08:03:04;6.97;;;5.33;;
9524;SDS011;15940;48.734;9.112;2022-11-27T08:05:32;8.07;;;5.77;;
9524;SDS011;15940;48.734;9.112;2022-11-27T08:07:59;6.47;;;5.57;;
9524;SDS011;15940;48.734;9.112;2022-11-27T08:10:28;10.00;;;5.57;;
9524;SDS011;15940;48.734;9.112;2022-11-27T08:12:55;6.40;;;5.33;;
9524;SDS011;15940;48.734;9.112;2022-11-27T08:15:23;7.27;;;5.90;;
9524;SDS011;15940;48.734;9.112;2022-11-27T08:17:50;8.23;;;5.50;;
9524;SDS011;15940;48.734;9.112;2022-11-27T08:20:18;8.03;;;5.83;;
9524;SDS011;15940;48.734;9.112;2022-11-27T08:22:46;11.47;;;6.50;;
9524;SDS011;15940;48.734;9.112;2022-11-27T08:25:13;7.20;;;5.53;;
9524;SDS011;15940;48.734;9.112;2022-11-27T08:27:40;7.73;;;5.30;;
9524;SDS011;15940;48.734;9.112;2022-11-27T08:30:08;6.70;;;5.30;;
9524;SDS011;15940;48.734;9.112;2022-11-27T08:32:37;5.23;;;4.70;;
9524;SDS011;15940;48.734;9.112;2022-11-27T08:35:04;6.50;;;4.70;;
9524;SDS011;15940;48.734;9.112;2022-11-27T08:37:33;7.40;;;4.87;;
9524;SDS011;15940;48.734;9.112;2022-11-27T08:40:01;4.90;;;4.37;;
9524;SDS011;15940;48.734;9.112;2022-11-27T08:42:29;5.47;;;4.10;;
9524;SDS011;15940;48.734;9.112;2022-11-27T08:44:56;5.93;;;4.20;;
9524;SDS011;15940;48.734;9.112;2022-11-27T08:47:23;5.53;;;4.50;;
9524;SDS011;15940;48.734;9.112;2022-11-27T08:49:50;5.40;;;4.50;;
9524;SDS011;15940;48.734;9.112;2022-11-27T08:52:17;4.47;;;3.93;;
9524;SDS011;15940;48.734;9.112;2022-11-27T08:54:46;5.63;;;4.10;;
9524;SDS011;15940;48.734;9.112;2022-11-27T08:57:13;5.70;;;4.40;;
9524;SDS011;15940;48.734;9.112;2022-11-27T08:59:41;7.00;;;3.77;;
9524;SDS011;15940;48.734;9.112;2022-11-27T09:02:09;4.93;;;3.20;;
9524;SDS011;15940;48.734;9.112;2022-11-27T09:04:37;7.13;;;3.47;;
9524;SDS011;15940;48.734;9.112;2022-11-27T09:07:04;3.63;;;3.17;;
9524;SDS011;15940;48.734;9.112;2022-11-27T09:09:31;4.83;;;3.30;;
9524;SDS011;15940;48.734;9.112;2022-11-27T09:11:59;4.57;;;3.20;;
9524;SDS011;15940;48.734;9.112;2022-11-27T09:14:27;4.90;;;3.30;;
9524;SDS011;15940;48.734;9.112;2022-11-27T09:16:54;5.37;;;3.20;;
9524;SDS011;15940;48.734;9.112;2022-11-27T09:19:21;3.27;;;2.70;;
9524;SDS011;15940;48.734;9.112;2022-11-27T09:21:48;4.53;;;3.10;;
9524;SDS011;15940;48.734;9.112;2022-11-27T09:24:15;3.50;;;2.90;;
9524;SDS011;15940;48.734;9.112;2022-11-27T09:26:42;6.13;;;3.37;;
9524;SDS011;15940;48.734;9.112;2022-11-27T09:29:11;3.43;;;3.17;;
9524;SDS011;15940;48.734;9.112;2022-11-27T09:31:38;3.23;;;2.60;;
9524;SDS011;15940;48.734;9.112;2022-11-27T09:34:05;4.30;;;3.20;;
9524;SDS011;15940;48.734;9.112;2022-11-27T09:36:32;4.93;;;2.83;;
9524;SDS011;15940;48.734;9.112;2022-11-27T09:38:59;3.47;;;2.60;;
9524;SDS011;15940;48.734;9.112;2022-11-27T09:41:38;5.03;;;2.60;;
9524;SDS011;15940;48.734;9.112;2022-11-27T09:47:04;4.37;;;2.67;;
9524;SDS011;15940;48.734;9.112;2022-11-27T09:49:40;4.10;;;3.57;;
9524;SDS011;15940;48.734;9.112;2022-11-27T09:52:14;3.30;;;2.40;;
9524;SDS011;15940;48.734;9.112;2022-11-27T09:54:49;2.73;;;2.30;;
9524;SDS011;15940;48.734;9.112;2022-11-27T09:57:25;4.97;;;3.00;;
9524;SDS011;15940;48.734;9.112;2022-11-27T09:59:58;5.43;;;3.70;;
9524;SDS011;15940;48.734;9.112;2022-11-27T10:02:31;3.67;;;3.37;;
9524;SDS011;15940;48.734;9.112;2022-11-27T10:05:00;3.77;;;2.87;;
9524;SDS011;15940;48.734;9.112;2022-11-27T10:07:36;5.43;;;3.50;;
9524;SDS011;15940;48.734;9.112;2022-11-27T10:10:35;4.13;;;3.23;;
9524;SDS011;15940;48.734;9.112;2022-11-27T10:13:21;4.20;;;3.20;;
9524;SDS011;15940;48.734;9.112;2022-11-27T10:16:15;4.10;;;3.20;;
9524;SDS011;15940;48.734;9.112;2022-11-27T10:18:50;2.97;;;2.53;;
9524;SDS011;15940;48.734;9.112;2022-11-27T10:21:24;3.77;;;2.47;;
9524;SDS011;15940;48.734;9.112;2022-11-27T10:24:04;4.27;;;2.77;;
9524;SDS011;15940;48.734;9.112;2022-11-27T10:26:42;2.70;;;2.50;;
9524;SDS011;15940;48.734;9.112;2022-11-27T10:29:15;4.37;;;3.57;;
9524;SDS011;15940;48.734;9.112;2022-11-27T10:31:58;4.03;;;3.07;;
9524;SDS011;15940;48.734;9.112;2022-11-27T10:34:35;5.83;;;3.30;;
9524;SDS011;15940;48.734;9.112;2022-11-27T10:37:06;4.03;;;2.97;;
9524;SDS011;15940;48.734;9.112;2022-11-27T10:39:41;3.77;;;3.07;;
9524;SDS011;15940;48.734;9.112;2022-11-27T10:42:16;5.20;;;2.97;;
9524;SDS011;15940;48.734;9.112;2022-11-27T10:44:49;4.30;;;2.60;;
9524;SDS011;15940;48.734;9.112;2022-11-27T10:47:24;4.97;;;2.70;;
9524;SDS011;15940;48.734;9.112;2022-11-27T10:49:52;2.70;;;2.33;;
9524;SDS011;15940;48.734;9.112;2022-11-27T10:52:20;2.70;;;2.03;;
9524;SDS011;15940;48.734;9.112;2022-11-27T10:54:48;3.30;;;2.30;;
9524;SDS011;15940;48.734;9.112;2022-11-27T10:57:42;2.67;;;2.20;;
9524;SDS011;15940;48.734;9.112;2022-11-27T11:00:22;7.43;;;4.53;;
9524;SDS011;15940;48.734;9.112;2022-11-27T11:02:59;3.07;;;2.50;;
9524;SDS011;15940;48.734;9.112;2022-11-27T11:05:28;4.40;;;2.27;;
9524;SDS011;15940;48.734;9.112;2022-11-27T11:07:57;2.80;;;2.37;;
9524;SDS011;15940;48.734;9.112;2022-11-27T11:10:30;4.30;;;3.57;;
9524;SDS011;15940;48.734;9.112;2022-11-27T11:15:51;3.53;;;2.83;;
9524;SDS011;15940;48.734;9.112;2022-11-27T11:18:23;4.53;;;2.83;;
9524;SDS011;15940;48.734;9.112;2022-11-27T11:20:54;3.60;;;2.73;;
9524;SDS011;15940;48.734;9.112;2022-11-27T11:23:25;3.50;;;3.20;;
9524;SDS011;15940;48.734;9.112;2022-11-27T11:26:00;3.27;;;2.93;;
9524;SDS011;15940;48.734;9.112;2022-11-27T11:28:33;3.93;;;2.83;;
9524;SDS011;15940;48.734;9.112;2022-11-27T11:31:09;2.83;;;2.60;;
9524;SDS011;15940;48.734;9.112;2022-11-27T11:33:48;3.90;;;3.00;;
9524;SDS011;15940;48.734;9.112;2022-11-27T11:36:20;4.07;;;2.73;;
9524;SDS011;15940;48.734;9.112;2022-11-27T11:38:47;2.77;;;2.50;;
9524;SDS011;15940;48.734;9.112;2022-11-27T11:41:16;5.57;;;3.07;;
9524;SDS011;15940;48.734;9.112;2022-11-27T11:46:29;3.77;;;3.10;;
9524;SDS011;15940;48.734;9.112;2022-11-27T11:49:04;3.80;;;3.40;;
9524;SDS011;15940;48.734;9.112;2022-11-27T11:51:53;4.83;;;4.10;;
9524;SDS011;15940;48.734;9.112;2022-11-27T11:54:50;6.30;;;4.13;;
9524;SDS011;15940;48.734;9.112;2022-11-27T11:57:32;8.37;;;4.70;;
9524;SDS011;15940;48.734;9.112;2022-11-27T12:00:21;5.07;;;4.43;;
9524;SDS011;15940;48.734;9.112;2022-11-27T12:02:55;5.80;;;4.13;;
9524;SDS011;15940;48.734;9.112;2022-11-27T12:05:44;5.30;;;4.80;;
9524;SDS011;15940;48.734;9.112;2022-11-27T12:08:32;5.37;;;4.60;;
9524;SDS011;15940;48.734;9.112;2022-11-27T12:11:14;6.03;;;5.07;;
9524;SDS011;15940;48.734;9.112;2022-11-27T12:13:51;5.00;;;4.50;;
9524;SDS011;15940;48.734;9.112;2022-11-27T12:16:32;6.60;;;4.47;;
9524;SDS011;15940;48.734;9.112;2022-11-27T12:19:24;5.90;;;5.30;;
9524;SDS011;15940;48.734;9.112;2022-11-27T12:25:51;6.10;;;5.10;;
9524;SDS011;15940;48.734;9.112;2022-11-27T12:28:32;6.20;;;5.40;;
9524;SDS011;15940;48.734;9.112;2022-11-27T12:31:29;5.60;;;4.67;;
9524;SDS011;15940;48.734;9.112;2022-11-27T12:34:17;7.70;;;5.17;;
9524;SDS011;15940;48.734;9.112;2022-11-27T12:36:59;5.27;;;4.77;;
9524;SDS011;15940;48.734;9.112;2022-11-27T12:39:40;5.10;;;4.60;;
9524;SDS011;15940;48.734;9.112;2022-11-27T12:42:26;5.10;;;4.33;;
9524;SDS011;15940;48.734;9.112;2022-11-27T12:44:59;5.33;;;4.50;;
9524;SDS011;15940;48.734;9.112;2022-11-27T12:47:32;4.43;;;4.03;;
9524;SDS011;15940;48.734;9.112;2022-11-27T12:50:07;7.20;;;5.10;;
9524;SDS011;15940;48.734;9.112;2022-11-27T12:52:43;5.10;;;4.53;;
9524;SDS011;15940;48.734;9.112;2022-11-27T12:55:19;5.10;;;4.50;;
9524;SDS011;15940;48.734;9.112;2022-11-27T12:57:53;8.13;;;4.73;;
9524;SDS011;15940;48.734;9.112;2022-11-27T13:00:27;4.47;;;4.03;;
9524;SDS011;15940;48.734;9.112;2022-11-27T13:02:59;5.13;;;4.63;;
9524;SDS011;15940;48.734;9.112;2022-11-27T13:05:32;5.77;;;4.13;;
9524;SDS011;15940;48.734;9.112;2022-11-27T13:08:08;7.00;;;4.43;;
9524;SDS011;15940;48.734;9.112;2022-11-27T13:10:42;5.30;;;4.47;;
9524;SDS011;15940;48.734;9.112;2022-11-27T13:13:19;4.57;;;4.10;;
9524;SDS011;15940;48.734;9.112;2022-11-27T13:15:53;5.37;;;4.47;;
9524;SDS011;15940;48.734;9.112;2022-11-27T13:18:29;6.40;;;4.47;;
9524;SDS011;15940;48.734;9.112;2022-11-27T13:21:01;5.00;;;4.50;;
9524;SDS011;15940;48.734;9.112;2022-11-27T13:23:33;5.80;;;4.53;;
9524;SDS011;15940;48.734;9.112;2022-11-27T13:26:00;4.73;;;4.23;;
9524;SDS011;15940;48.734;9.112;2022-11-27T13:28:35;4.57;;;4.17;;
9524;SDS011;15940;48.734;9.112;2022-11-27T13:31:07;4.23;;;3.83;;
9524;SDS011;15940;48.734;9.112;2022-11-27T13:33:43;4.10;;;3.70;;
9524;SDS011;15940;48.734;9.112;2022-11-27T13:36:16;4.43;;;4.00;;
9524;SDS011;15940;48.734;9.112;2022-11-27T13:38:51;5.90;;;3.80;;
9524;SDS011;15940;48.734;9.112;2022-11-27T13:41:22;4.43;;;3.70;;
9524;SDS011;15940;48.734;9.112;2022-11-27T13:43:58;4.67;;;4.00;;
9524;SDS011;15940;48.734;9.112;2022-11-27T13:46:27;5.53;;;4.13;;
9524;SDS011;15940;48.734;9.112;2022-11-27T13:48:56;6.07;;;3.60;;
9524;SDS011;15940;48.734;9.112;2022-11-27T13:51:28;6.40;;;4.83;;
9524;SDS011;15940;48.734;9.112;2022-11-27T13:54:07;4.60;;;4.20;;
9524;SDS011;15940;48.734;9.112;2022-11-27T13:56:37;5.77;;;4.47;;
9524;SDS011;15940;48.734;9.112;2022-11-27T13:59:15;4.63;;;4.10;;
9524;SDS011;15940;48.734;9.112;2022-11-27T14:01:52;4.33;;;3.90;;
9524;SDS011;15940;48.734;9.112;2022-11-27T14:04:23;6.37;;;4.27;;
9524;SDS011;15940;48.734;9.112;2022-11-27T14:06:51;6.83;;;4.40;;
9524;SDS011;15940;48.734;9.112;2022-11-27T14:09:30;4.83;;;4.33;;
9524;SDS011;15940;48.734;9.112;2022-11-27T14:12:01;5.20;;;4.63;;
9524;SDS011;15940;48.734;9.112;2022-11-27T14:14:39;5.30;;;4.77;;
9524;SDS011;15940;48.734;9.112;2022-11-27T14:17:20;6.83;;;5.30;;
9524;SDS011;15940;48.734;9.112;2022-11-27T14:19:59;5.97;;;4.83;;
9524;SDS011;15940;48.734;9.112;2022-11-27T14:22:32;7.93;;;4.80;;
9524;SDS011;15940;48.734;9.112;2022-11-27T14:25:15;6.13;;;5.27;;
9524;SDS011;15940;48.734;9.112;2022-11-27T14:27:47;6.17;;;5.10;;
9524;SDS011;15940;48.734;9.112;2022-11-27T14:30:26;6.80;;;4.77;;
9524;SDS011;15940;48.734;9.112;2022-11-27T14:32:58;4.83;;;4.40;;
9524;SDS011;15940;48.734;9.112;2022-11-27T14:35:27;6.80;;;4.90;;
9524;SDS011;15940;48.734;9.112;2022-11-27T14:38:05;6.50;;;4.53;;
9524;SDS011;15940;48.734;9.112;2022-11-27T14:40:34;4.33;;;3.90;;
9524;SDS011;15940;48.734;9.112;2022-11-27T14:43:08;4.47;;;4.07;;
9524;SDS011;15940;48.734;9.112;2022-11-27T14:45:42;7.73;;;4.67;;
9524;SDS011;15940;48.734;9.112;2022-11-27T14:48:14;6.50;;;4.40;;
9524;SDS011;15940;48.734;9.112;2022-11-27T14:50:46;6.90;;;5.23;;
9524;SDS011;15940;48.734;9.112;2022-11-27T14:53:15;6.30;;;4.17;;
9524;SDS011;15940;48.734;9.112;2022-11-27T14:55:44;5.70;;;4.60;;
9524;SDS011;15940;48.734;9.112;2022-11-27T14:58:14;7.60;;;4.70;;
9524;SDS011;15940;48.734;9.112;2022-11-27T15:00:54;7.00;;;5.00;;
9524;SDS011;15940;48.734;9.112;2022-11-27T15:03:24;5.77;;;4.70;;
9524;SDS011;15940;48.734;9.112;2022-11-27T15:05:53;9.50;;;5.37;;
9524;SDS011;15940;48.734;9.112;2022-11-27T15:08:23;5.20;;;4.70;;
9524;SDS011;15940;48.734;9.112;2022-11-27T15:10:51;5.77;;;4.70;;
9524;SDS011;15940;48.734;9.112;2022-11-27T15:13:22;6.67;;;5.43;;
9524;SDS011;15940;48.734;9.112;2022-11-27T15:15:54;5.33;;;4.83;;
9524;SDS011;15940;48.734;9.112;2022-11-27T15:18:27;5.60;;;4.70;;
9524;SDS011;15940;48.734;9.112;2022-11-27T15:20:56;6.03;;;5.30;;
9524;SDS011;15940;48.734;9.112;2022-11-27T15:23:25;6.37;;;5.37;;
9524;SDS011;15940;48.734;9.112;2022-11-27T15:26:05;7.10;;;5.20;;
9524;SDS011;15940;48.734;9.112;2022-11-27T15:28:36;5.83;;;4.83;;
9524;SDS011;15940;48.734;9.112;2022-11-27T15:31:23;7.37;;;5.10;;
9524;SDS011;15940;48.734;9.112;2022-11-27T15:33:54;5.80;;;5.13;;
9524;SDS011;15940;48.734;9.112;2022-11-27T15:36:24;6.20;;;5.13;;